createdAt,value
2019-03-13T00:01:41.629Z,4.70
2019-03-13T00:04:12.894Z,2.40
2019-03-13T00:06:44.461Z,5.17
2019-03-13T00:09:15.923Z,2.62
2019-03-13T00:11:47.449Z,3.03
2019-03-13T00:14:18.670Z,4.47
2019-03-13T00:16:50.202Z,5.30
2019-03-13T00:19:22.131Z,7.24
2019-03-13T00:21:54.047Z,5.77
2019-03-13T00:24:25.551Z,5.47
2019-03-13T00:26:56.913Z,4.07
2019-03-13T00:29:28.013Z,3.83
2019-03-13T00:32:00.225Z,4.90
2019-03-13T00:34:31.461Z,5.77
2019-03-13T00:37:03.530Z,1.20
2019-03-13T00:39:34.755Z,1.47
2019-03-13T00:42:05.981Z,0.70
2019-03-13T00:44:37.273Z,0.73
2019-03-13T00:47:08.862Z,0.40
2019-03-13T00:49:40.656Z,2.40
2019-03-13T00:52:11.938Z,0.37
2019-03-13T00:54:43.459Z,1.20
2019-03-13T00:57:14.840Z,3.63
2019-03-13T00:59:46.043Z,0.50
2019-03-13T01:02:48.450Z,0.67
2019-03-13T01:05:28.008Z,2.20
2019-03-13T01:07:59.195Z,0.90
2019-03-13T01:10:30.472Z,1.13
2019-03-13T01:13:02.108Z,0.93
2019-03-13T01:15:33.340Z,0.87
2019-03-13T01:18:04.569Z,0.83
2019-03-13T01:20:36.089Z,3.07
2019-03-13T01:23:07.330Z,0.47
2019-03-13T01:25:38.622Z,0.73
2019-03-13T01:28:10.203Z,2.77
2019-03-13T01:30:50.667Z,2.73
2019-03-13T01:33:22.975Z,1.90
2019-03-13T01:36:00.584Z,1.37
2019-03-13T01:38:31.799Z,3.53
2019-03-13T01:41:03.621Z,2.03
2019-03-13T01:43:34.981Z,1.50
2019-03-13T01:46:06.572Z,1.90
2019-03-13T01:48:37.742Z,3.93
2019-03-13T01:51:09.358Z,2.70
2019-03-13T01:53:40.585Z,3.57
2019-03-13T01:56:12.097Z,3.60
2019-03-13T01:58:43.327Z,6.20
2019-03-13T02:01:14.830Z,2.87
2019-03-13T02:03:46.971Z,3.53
2019-03-13T02:06:18.814Z,4.13
2019-03-13T02:08:50.083Z,3.58
2019-03-13T02:11:22.300Z,4.53
2019-03-13T02:13:55.103Z,4.28
2019-03-13T02:16:26.306Z,1.83
2019-03-13T02:18:58.558Z,4.50
2019-03-13T02:21:29.784Z,6.50
2019-03-13T02:24:01.376Z,3.40
2019-03-13T02:26:32.617Z,4.67
2019-03-13T02:29:04.320Z,3.30
2019-03-13T02:31:36.645Z,3.63
2019-03-13T02:34:08.212Z,6.30
2019-03-13T02:36:39.354Z,3.30
2019-03-13T02:39:11.260Z,2.00
2019-03-13T02:41:42.843Z,4.40
2019-03-13T02:44:14.378Z,1.83
2019-03-13T02:46:45.602Z,3.77
2019-03-13T02:49:17.148Z,3.23
2019-03-13T02:51:48.346Z,3.63
2019-03-13T02:54:19.833Z,4.83
2019-03-13T02:56:51.391Z,3.83
2019-03-13T02:59:22.607Z,7.10
2019-03-13T03:02:17.104Z,8.47
2019-03-13T03:04:48.726Z,5.00
2019-03-13T03:07:19.898Z,4.83
2019-03-13T03:09:51.132Z,1.93
2019-03-13T03:12:22.442Z,6.90
2019-03-13T03:15:07.319Z,4.87
2019-03-13T03:17:39.198Z,5.07
2019-03-13T03:20:13.991Z,8.20
2019-03-13T03:22:45.814Z,3.30
2019-03-13T03:25:17.758Z,8.18
2019-03-13T03:27:49.756Z,5.50
2019-03-13T03:30:23.185Z,5.28
2019-03-13T03:32:55.441Z,4.67
2019-03-13T03:35:26.780Z,7.30
2019-03-13T03:37:58.077Z,2.77
2019-03-13T03:40:29.304Z,7.33
2019-03-13T03:43:01.117Z,5.13
2019-03-13T03:45:33.853Z,7.70
2019-03-13T03:48:05.362Z,3.53
2019-03-13T03:50:36.524Z,7.50
2019-03-13T03:53:07.710Z,5.57
2019-03-13T03:55:39.083Z,4.37
2019-03-13T03:58:10.276Z,4.50
2019-03-13T04:00:41.980Z,5.70
2019-03-13T04:03:13.432Z,4.15
2019-03-13T04:05:44.944Z,4.93
2019-03-13T04:08:16.159Z,8.00
2019-03-13T04:10:47.403Z,8.57
2019-03-13T04:13:18.901Z,2.93
2019-03-13T04:15:50.493Z,9.03
2019-03-13T04:18:21.723Z,6.97
2019-03-13T04:20:53.015Z,7.63
2019-03-13T04:23:24.598Z,6.07
2019-03-13T04:25:55.835Z,4.90
2019-03-13T04:28:27.022Z,8.03
2019-03-13T04:30:58.651Z,7.20
2019-03-13T04:33:30.191Z,6.63
2019-03-13T04:36:01.423Z,10.00
2019-03-13T04:38:32.638Z,7.60
2019-03-13T04:41:04.238Z,10.38
2019-03-13T04:43:35.466Z,10.77
2019-03-13T04:46:06.693Z,6.30
2019-03-13T04:48:38.446Z,11.20
2019-03-13T04:51:10.328Z,6.57
2019-03-13T04:53:41.907Z,10.10
2019-03-13T04:56:13.432Z,10.43
2019-03-13T04:58:45.285Z,15.03
2019-03-13T05:01:16.777Z,8.57
2019-03-13T05:03:48.042Z,7.75
2019-03-13T05:06:23.952Z,9.07
2019-03-13T05:09:04.662Z,9.73
2019-03-13T05:11:35.922Z,9.53
2019-03-13T05:14:07.106Z,12.53
2019-03-13T05:16:38.290Z,9.07
2019-03-13T05:19:10.487Z,7.95
2019-03-13T05:21:41.999Z,5.17
2019-03-13T05:24:13.222Z,9.00
2019-03-13T05:26:44.487Z,10.83
2019-03-13T05:29:16.313Z,8.43
2019-03-13T05:31:49.354Z,14.23
2019-03-13T05:34:20.577Z,7.03
2019-03-13T05:36:52.117Z,7.43
2019-03-13T05:39:23.328Z,9.37
2019-03-13T05:41:55.765Z,5.77
2019-03-13T05:44:27.961Z,7.53
2019-03-13T05:46:59.589Z,11.20
2019-03-13T05:49:31.771Z,9.27
2019-03-13T05:52:03.935Z,9.80
2019-03-13T05:54:35.697Z,11.63
2019-03-13T05:57:07.819Z,6.80
2019-03-13T05:59:39.050Z,6.33
2019-03-13T06:02:10.315Z,11.57
2019-03-13T06:04:42.114Z,10.17
2019-03-13T06:07:13.684Z,11.53
2019-03-13T06:09:45.168Z,6.73
2019-03-13T06:12:17.077Z,6.42
2019-03-13T06:14:48.842Z,5.62
2019-03-13T06:17:20.009Z,7.03
2019-03-13T06:19:51.739Z,9.93
2019-03-13T06:22:22.929Z,8.10
2019-03-13T06:24:54.569Z,6.30
2019-03-13T06:27:26.643Z,6.50
2019-03-13T06:29:58.263Z,8.87
2019-03-13T06:32:29.503Z,6.20
2019-03-13T06:35:01.148Z,8.10
2019-03-13T06:37:32.369Z,7.83
2019-03-13T06:40:03.896Z,9.85
2019-03-13T06:42:36.221Z,6.97
2019-03-13T06:45:09.725Z,17.07
2019-03-13T06:47:41.269Z,12.13
2019-03-13T06:50:16.862Z,11.00
2019-03-13T06:52:48.086Z,11.20
2019-03-13T06:55:19.604Z,9.13
2019-03-13T06:57:51.986Z,7.97
2019-03-13T07:00:45.194Z,7.23
2019-03-13T07:03:34.434Z,8.93
2019-03-13T07:06:24.084Z,5.75
2019-03-13T07:09:00.399Z,9.57
2019-03-13T07:11:53.291Z,11.13
2019-03-13T07:14:43.736Z,9.57
2019-03-13T07:17:35.336Z,8.23
2019-03-13T07:20:25.565Z,8.83
2019-03-13T07:23:12.568Z,11.27
2019-03-13T07:26:01.699Z,15.53
2019-03-13T07:28:55.213Z,6.87
2019-03-13T07:31:43.766Z,7.57
2019-03-13T07:34:32.445Z,9.70
2019-03-13T07:37:20.953Z,9.15
2019-03-13T07:40:09.766Z,6.57
2019-03-13T07:42:55.539Z,8.60
2019-03-13T07:45:44.736Z,9.47
2019-03-13T07:48:33.541Z,11.63
2019-03-13T07:51:19.763Z,11.83
2019-03-13T07:54:05.647Z,7.73
2019-03-13T07:56:54.881Z,6.62
2019-03-13T07:59:53.945Z,6.20
2019-03-13T08:02:45.626Z,8.20
2019-03-13T08:05:42.201Z,10.17
2019-03-13T08:08:41.370Z,7.17
2019-03-13T08:11:44.416Z,12.23
2019-03-13T08:14:41.205Z,13.13
2019-03-13T08:17:44.313Z,11.03
2019-03-13T08:20:33.075Z,8.57
2019-03-13T08:23:29.249Z,11.48
2019-03-13T08:26:22.525Z,8.23
2019-03-13T08:29:28.280Z,12.40
2019-03-13T08:32:25.124Z,8.73
2019-03-13T08:35:26.647Z,8.00
2019-03-13T08:38:06.068Z,11.10
2019-03-13T08:41:02.072Z,12.37
2019-03-13T08:43:54.594Z,7.73
2019-03-13T08:46:50.756Z,7.70
2019-03-13T08:49:35.151Z,8.23
2019-03-13T08:52:40.536Z,10.85
2019-03-13T08:55:25.779Z,9.00
2019-03-13T08:58:11.465Z,13.00
2019-03-13T09:01:01.572Z,14.40
2019-03-13T09:03:58.693Z,7.00
2019-03-13T09:07:04.024Z,11.80
2019-03-13T09:09:49.533Z,8.33
2019-03-13T09:12:34.309Z,13.50
2019-03-13T09:15:28.557Z,9.60
2019-03-13T09:18:17.221Z,19.37
2019-03-13T09:21:19.773Z,12.43
2019-03-13T09:24:21.793Z,7.47
2019-03-13T09:27:21.337Z,9.63
2019-03-13T09:30:10.296Z,11.37
2019-03-13T09:33:07.067Z,13.55
2019-03-13T09:35:59.185Z,6.00
2019-03-13T09:39:02.277Z,9.67
2019-03-13T09:41:58.273Z,8.03
2019-03-13T09:44:56.960Z,12.07
2019-03-13T09:47:47.033Z,16.87
2019-03-13T09:50:26.342Z,10.50
2019-03-13T09:53:22.460Z,7.53
2019-03-13T09:56:12.602Z,10.47
2019-03-13T09:59:03.314Z,13.03
2019-03-13T10:01:49.659Z,9.77
2019-03-13T10:04:42.331Z,14.63
2019-03-13T10:07:44.915Z,5.90
2019-03-13T10:10:35.131Z,9.35
2019-03-13T10:13:18.634Z,7.80
2019-03-13T10:16:01.792Z,10.53
2019-03-13T10:18:52.257Z,11.20
2019-03-13T10:21:57.632Z,5.27
2019-03-13T10:24:46.407Z,9.13
2019-03-13T10:27:27.417Z,10.48
2019-03-13T10:30:14.737Z,8.15
2019-03-13T10:32:52.662Z,8.07
2019-03-13T10:35:52.690Z,7.13
2019-03-13T10:38:40.533Z,6.90
2019-03-13T10:41:17.743Z,8.20
2019-03-13T10:44:08.499Z,11.80
2019-03-13T10:46:48.795Z,9.17
2019-03-13T10:49:42.220Z,11.05
2019-03-13T10:52:41.816Z,4.00
2019-03-13T10:55:22.703Z,8.87
2019-03-13T10:58:18.805Z,14.40
2019-03-13T11:01:07.837Z,7.00
2019-03-13T11:03:50.719Z,6.57
2019-03-13T11:06:54.006Z,14.17
2019-03-13T11:09:36.405Z,4.67
2019-03-13T11:12:14.702Z,8.13
2019-03-13T11:15:01.559Z,9.77
2019-03-13T11:17:52.008Z,13.03
2019-03-13T11:20:34.878Z,7.70
2019-03-13T11:23:27.816Z,5.83
2019-03-13T11:26:26.917Z,9.30
2019-03-13T11:29:05.360Z,5.00
2019-03-13T11:32:02.088Z,12.97
2019-03-13T11:34:58.517Z,9.20
2019-03-13T11:37:52.250Z,5.23
2019-03-13T11:40:34.852Z,14.00
2019-03-13T11:43:41.540Z,5.28
2019-03-13T11:46:28.996Z,4.90
2019-03-13T11:49:35.419Z,4.97
2019-03-13T11:52:34.716Z,6.00
2019-03-13T11:55:31.888Z,6.50
2019-03-13T11:58:31.012Z,4.40
2019-03-13T12:01:20.288Z,4.10
2019-03-13T12:04:08.834Z,2.83
2019-03-13T12:06:59.034Z,4.20
2019-03-13T12:09:49.269Z,5.37
2019-03-13T12:12:55.058Z,3.80
2019-03-13T12:15:48.707Z,4.87
2019-03-13T12:18:38.860Z,6.13
2019-03-13T12:21:32.395Z,8.40
2019-03-13T12:24:25.448Z,4.63
2019-03-13T12:27:16.613Z,6.10
2019-03-13T12:29:59.450Z,3.33
2019-03-13T12:32:58.408Z,5.60
2019-03-13T12:35:51.897Z,1.98
2019-03-13T12:38:42.405Z,4.80
2019-03-13T12:41:41.017Z,2.73
2019-03-13T12:44:25.017Z,1.23
2019-03-13T12:47:24.042Z,1.30
2019-03-13T12:50:34.171Z,3.25
2019-03-13T12:53:34.463Z,2.10
2019-03-13T12:56:30.013Z,8.00
2019-03-13T12:59:21.867Z,2.57
2019-03-13T13:02:22.044Z,4.27
2019-03-13T13:05:10.756Z,2.67
2019-03-13T13:08:04.216Z,2.40
2019-03-13T13:11:01.257Z,1.47
2019-03-13T13:13:50.232Z,4.13
2019-03-13T13:16:43.174Z,2.23
2019-03-13T13:19:14.419Z,3.23
2019-03-13T13:21:45.942Z,0.63
2019-03-13T13:24:18.114Z,1.63
2019-03-13T13:26:50.411Z,0.93
2019-03-13T13:29:22.741Z,1.60
2019-03-13T13:31:55.481Z,4.60
2019-03-13T13:34:27.624Z,1.33
2019-03-13T13:36:59.575Z,2.40
2019-03-13T13:39:30.820Z,0.83
2019-03-13T13:42:02.496Z,3.37
2019-03-13T13:44:34.290Z,1.33
2019-03-13T13:47:05.770Z,2.63
2019-03-13T13:49:37.149Z,2.60
2019-03-13T13:52:08.479Z,3.17
2019-03-13T13:54:39.753Z,3.23
2019-03-13T13:57:11.095Z,1.03
2019-03-13T13:59:42.352Z,4.07
2019-03-13T14:02:13.884Z,2.07
2019-03-13T14:04:45.077Z,3.60
2019-03-13T14:07:33.319Z,14.97
2019-03-13T14:10:14.940Z,1.57
2019-03-13T14:13:08.189Z,1.73
2019-03-13T14:19:13.347Z,3.50
2019-03-13T14:21:48.879Z,2.07
2019-03-13T14:24:41.084Z,2.15
2019-03-13T14:27:15.818Z,1.90
2019-03-13T14:32:48.295Z,1.10
2019-03-13T14:35:19.589Z,2.35
2019-03-13T14:38:36.996Z,2.43
2019-03-13T14:41:21.755Z,1.30
2019-03-13T14:43:53.020Z,6.30
2019-03-13T14:46:24.979Z,0.53
2019-03-13T14:48:57.083Z,1.33
2019-03-13T14:51:29.272Z,2.50
2019-03-13T14:54:00.545Z,3.20
2019-03-13T14:56:32.402Z,4.70
2019-03-13T14:59:03.821Z,1.70
2019-03-13T15:01:35.237Z,1.60
2019-03-13T15:04:06.457Z,1.30
2019-03-13T15:06:38.907Z,4.70
2019-03-13T15:09:10.286Z,4.13
2019-03-13T15:11:41.475Z,2.57
2019-03-13T15:14:12.702Z,2.03
2019-03-13T15:16:44.244Z,3.70
2019-03-13T15:19:15.489Z,4.13
2019-03-13T15:21:46.773Z,1.20
2019-03-13T15:24:18.578Z,6.60
2019-03-13T15:26:49.804Z,3.47
2019-03-13T15:29:21.065Z,2.27
2019-03-13T15:31:52.959Z,2.98
2019-03-13T15:34:24.154Z,3.03
2019-03-13T15:37:02.973Z,4.47
2019-03-13T15:39:35.099Z,2.37
2019-03-13T15:42:06.701Z,2.63
2019-03-13T15:44:37.962Z,2.67
2019-03-13T15:47:09.166Z,3.08
2019-03-13T15:49:40.402Z,2.43
2019-03-13T15:52:11.692Z,1.53
2019-03-13T15:54:42.906Z,1.80
2019-03-13T15:57:14.416Z,1.20
2019-03-13T15:59:46.253Z,2.17
2019-03-13T16:02:17.820Z,1.70
2019-03-13T16:04:49.175Z,1.53
2019-03-13T16:07:21.357Z,1.57
2019-03-13T16:09:52.616Z,2.03
2019-03-13T16:12:24.921Z,1.20
2019-03-13T16:14:56.265Z,2.37
2019-03-13T16:17:27.786Z,3.05
2019-03-13T16:19:59.136Z,0.60
2019-03-13T16:22:30.392Z,1.80
2019-03-13T16:25:01.644Z,2.27
2019-03-13T16:27:32.862Z,0.97
2019-03-13T16:30:05.376Z,0.90
2019-03-13T16:32:43.766Z,2.23
2019-03-13T16:35:10.156Z,1.70
2019-03-13T16:37:41.765Z,2.00
2019-03-13T16:40:15.180Z,3.13
2019-03-13T16:42:46.401Z,0.87
2019-03-13T16:45:17.818Z,2.37
2019-03-13T16:51:49.686Z,3.23
2019-03-13T16:54:20.918Z,3.37
2019-03-13T16:56:52.293Z,2.07
2019-03-13T16:59:23.991Z,1.20
2019-03-13T17:01:56.348Z,0.70
2019-03-13T17:04:28.025Z,2.00
2019-03-13T17:07:00.427Z,2.42
2019-03-13T17:09:31.659Z,0.80
2019-03-13T17:12:02.889Z,0.40
2019-03-13T17:14:34.378Z,1.10
2019-03-13T17:17:05.621Z,0.80
2019-03-13T17:19:37.664Z,1.77
2019-03-13T17:22:08.976Z,2.10
2019-03-13T17:24:40.190Z,1.30
2019-03-13T17:27:11.395Z,1.43
2019-03-13T17:29:44.514Z,1.10
2019-03-13T17:32:16.802Z,0.83
2019-03-13T17:34:48.122Z,1.23
2019-03-13T17:37:19.479Z,0.97
2019-03-13T17:39:50.778Z,2.60
2019-03-13T17:42:22.072Z,1.73
2019-03-13T17:44:53.841Z,5.80
2019-03-13T17:47:25.557Z,2.00
2019-03-13T17:49:57.214Z,4.40
2019-03-13T17:52:28.483Z,1.67
2019-03-13T17:54:59.706Z,1.70
2019-03-13T17:57:31.018Z,2.45
2019-03-13T18:00:02.593Z,2.27
2019-03-13T18:02:34.643Z,2.63
2019-03-13T18:05:06.258Z,2.77
2019-03-13T18:07:38.056Z,1.60
2019-03-13T18:10:12.229Z,3.00
2019-03-13T18:12:43.568Z,7.57
2019-03-13T18:15:15.060Z,2.63
2019-03-13T18:17:46.841Z,5.37
2019-03-13T18:20:19.628Z,4.17
2019-03-13T18:22:51.034Z,5.07
2019-03-13T18:25:22.748Z,4.47
2019-03-13T18:27:54.280Z,2.08
2019-03-13T18:30:25.649Z,3.87
2019-03-13T18:32:57.230Z,4.33
2019-03-13T18:35:28.598Z,2.93
2019-03-13T18:37:59.981Z,2.03
2019-03-13T18:40:31.381Z,3.27
2019-03-13T18:43:02.772Z,3.80
2019-03-13T18:45:34.288Z,3.13
2019-03-13T18:48:05.581Z,4.70
2019-03-13T18:50:36.921Z,5.10
2019-03-13T18:53:08.206Z,3.53
2019-03-13T18:55:39.450Z,5.70
2019-03-13T18:58:13.973Z,3.90
2019-03-13T19:00:44.363Z,5.43
2019-03-13T19:03:15.969Z,5.75
2019-03-13T19:05:47.288Z,5.47
2019-03-13T19:08:18.941Z,4.67
2019-03-13T19:10:50.436Z,7.57
2019-03-13T19:13:22.043Z,6.83
2019-03-13T19:15:53.732Z,5.67
2019-03-13T19:18:25.359Z,10.40
2019-03-13T19:20:58.583Z,6.20
2019-03-13T19:23:30.037Z,7.12
2019-03-13T19:26:01.755Z,6.33
2019-03-13T19:28:33.072Z,7.77
2019-03-13T19:31:04.739Z,6.00
2019-03-13T19:33:36.783Z,5.80
2019-03-13T19:36:08.082Z,5.00
2019-03-13T19:38:41.139Z,7.27
2019-03-13T19:41:12.531Z,6.90
2019-03-13T19:43:43.770Z,8.15
2019-03-13T19:46:15.174Z,8.60
2019-03-13T19:48:46.420Z,9.53
2019-03-13T19:51:18.636Z,9.17
2019-03-13T19:53:49.988Z,9.80
2019-03-13T19:56:21.547Z,9.90
2019-03-13T19:58:52.794Z,8.47
2019-03-13T20:01:24.474Z,8.60
2019-03-13T20:03:56.015Z,9.50
2019-03-13T20:06:28.365Z,8.23
2019-03-13T20:09:00.042Z,9.03
2019-03-13T20:11:31.294Z,12.23
2019-03-13T20:14:03.048Z,10.80
2019-03-13T20:16:34.399Z,12.75
2019-03-13T20:19:06.420Z,10.43
2019-03-13T20:21:38.109Z,16.37
2019-03-13T20:24:09.771Z,10.93
2019-03-13T20:26:41.181Z,11.78
2019-03-13T20:29:12.530Z,12.85
2019-03-13T20:31:43.899Z,10.27
2019-03-13T20:34:15.248Z,14.60
2019-03-13T20:36:46.918Z,13.93
2019-03-13T20:39:18.555Z,14.33
2019-03-13T20:41:50.243Z,19.25
2019-03-13T20:44:22.149Z,14.27
2019-03-13T20:46:54.335Z,14.00
2019-03-13T20:49:25.616Z,12.97
2019-03-13T20:51:57.208Z,14.33
2019-03-13T20:54:28.492Z,15.80
2019-03-13T20:57:00.685Z,13.90
2019-03-13T20:59:32.753Z,14.37
2019-03-13T21:02:04.525Z,10.50
2019-03-13T21:04:36.122Z,14.83
2019-03-13T21:07:07.690Z,13.43
2019-03-13T21:09:39.266Z,10.10
2019-03-13T21:12:10.862Z,11.95
2019-03-13T21:14:42.411Z,12.93
2019-03-13T21:17:13.795Z,11.88
2019-03-13T21:19:45.047Z,8.43
2019-03-13T21:22:16.324Z,11.17
2019-03-13T21:24:48.551Z,14.30
2019-03-13T21:27:19.795Z,13.20
2019-03-13T21:29:51.033Z,10.53
2019-03-13T21:32:22.375Z,7.70
2019-03-13T21:34:54.064Z,15.47
2019-03-13T21:37:25.629Z,10.73
2019-03-13T21:39:56.981Z,13.50
2019-03-13T21:42:28.554Z,12.00
2019-03-13T21:44:59.851Z,14.47
2019-03-13T21:47:31.163Z,11.17
2019-03-13T21:50:02.754Z,9.70
2019-03-13T21:52:34.371Z,11.17
2019-03-13T21:55:06.100Z,15.67
2019-03-13T21:57:37.403Z,12.60
2019-03-13T22:00:16.272Z,11.93
2019-03-13T22:02:48.212Z,11.27
2019-03-13T22:05:25.549Z,17.57
2019-03-13T22:07:52.958Z,15.30
2019-03-13T22:10:24.573Z,15.53
2019-03-13T22:12:55.839Z,14.50
2019-03-13T22:15:27.154Z,14.03
2019-03-13T22:17:58.506Z,11.90
2019-03-13T22:20:29.776Z,18.90
2019-03-13T22:23:01.164Z,16.70
2019-03-13T22:25:32.459Z,18.10
2019-03-13T22:28:03.684Z,15.47
2019-03-13T22:30:34.932Z,14.28
2019-03-13T22:33:06.625Z,15.95
2019-03-13T22:35:37.985Z,17.10
2019-03-13T22:38:09.252Z,18.53
2019-03-13T22:40:41.438Z,16.67
2019-03-13T22:43:12.734Z,14.38
2019-03-13T22:45:44.291Z,14.30
2019-03-13T22:48:15.583Z,14.95
2019-03-13T22:50:46.835Z,13.27
2019-03-13T22:53:18.079Z,15.53
2019-03-13T22:55:49.433Z,15.20
2019-03-13T22:58:21.001Z,14.30
2019-03-13T23:01:04.261Z,10.40
2019-03-13T23:03:35.953Z,13.43
2019-03-13T23:06:07.222Z,12.33
2019-03-13T23:09:04.088Z,12.90
2019-03-13T23:12:00.820Z,14.07
2019-03-13T23:14:54.780Z,9.38
2019-03-13T23:17:47.780Z,13.97
2019-03-13T23:20:43.164Z,10.33
2019-03-13T23:23:44.902Z,16.23
2019-03-13T23:26:31.314Z,16.43
2019-03-13T23:29:15.668Z,8.40
2019-03-13T23:32:09.152Z,8.97
2019-03-13T23:34:51.040Z,15.70
2019-03-13T23:37:53.222Z,7.00
2019-03-13T23:40:45.145Z,8.93
2019-03-13T23:43:34.399Z,17.17
2019-03-13T23:46:16.264Z,15.67
2019-03-13T23:49:08.566Z,12.37
2019-03-13T23:52:13.544Z,9.33
2019-03-13T23:55:03.327Z,15.53
2019-03-13T23:57:49.664Z,11.33
